createdAt,value
2022-10-26T00:00:18.798Z,0.00
2022-10-26T00:01:18.797Z,0.00
2022-10-26T00:02:18.881Z,0.00
2022-10-26T00:03:18.614Z,0.00
2022-10-26T00:04:18.544Z,0.00
2022-10-26T00:05:18.476Z,0.00
2022-10-26T00:06:18.430Z,0.00
2022-10-26T00:07:18.343Z,0.00
2022-10-26T00:08:18.278Z,0.00
2022-10-26T00:09:18.212Z,0.00
2022-10-26T00:10:18.149Z,0.00
2022-10-26T00:11:18.087Z,0.00
2022-10-26T00:12:18.025Z,0.00
2022-10-26T00:13:17.959Z,0.00
2022-10-26T00:14:17.893Z,0.00
2022-10-26T00:15:17.825Z,0.00
2022-10-26T00:16:17.760Z,0.00
2022-10-26T00:17:17.697Z,0.00
2022-10-26T00:18:17.631Z,0.00
2022-10-26T00:19:17.572Z,0.00
2022-10-26T00:20:17.499Z,0.00
2022-10-26T00:21:17.440Z,0.00
2022-10-26T00:22:17.376Z,0.00
2022-10-26T00:23:17.315Z,0.00
2022-10-26T00:25:17.180Z,0.00
2022-10-26T00:26:17.113Z,0.00
2022-10-26T00:27:17.048Z,0.00
2022-10-26T00:28:16.983Z,0.00
2022-10-26T00:29:16.919Z,0.00
2022-10-26T00:30:16.854Z,0.00
2022-10-26T00:31:16.793Z,0.00
2022-10-26T00:32:16.728Z,0.00
2022-10-26T00:33:16.669Z,0.00
2022-10-26T00:34:16.607Z,0.00
2022-10-26T00:35:23.081Z,0.00
2022-10-26T00:36:16.469Z,0.00
2022-10-26T00:37:16.402Z,0.00
2022-10-26T00:38:16.338Z,0.00
2022-10-26T00:39:16.272Z,0.00
2022-10-26T00:40:16.206Z,0.00
2022-10-26T00:41:16.143Z,0.00
2022-10-26T00:42:16.085Z,0.00
2022-10-26T00:43:16.011Z,0.00
2022-10-26T00:44:15.950Z,0.00
2022-10-26T00:45:15.882Z,0.00
2022-10-26T00:46:15.818Z,0.00
2022-10-26T00:47:15.752Z,0.00
2022-10-26T00:48:15.691Z,0.00
2022-10-26T00:49:15.642Z,0.00
2022-10-26T00:50:15.560Z,0.00
2022-10-26T00:51:15.494Z,0.00
2022-10-26T00:52:15.435Z,0.00
2022-10-26T00:53:15.380Z,0.00
2022-10-26T00:54:15.300Z,0.00
2022-10-26T00:55:15.234Z,0.00
2022-10-26T00:56:15.170Z,0.00
2022-10-26T00:57:15.106Z,0.00
2022-10-26T00:58:15.042Z,0.00
2022-10-26T00:59:15.026Z,0.00
2022-10-26T01:00:14.913Z,0.00
2022-10-26T01:01:14.899Z,0.00
2022-10-26T01:02:14.792Z,0.00
2022-10-26T01:03:14.790Z,0.00
2022-10-26T01:04:14.675Z,0.00
2022-10-26T01:05:14.587Z,0.00
2022-10-26T01:06:14.528Z,0.00
2022-10-26T01:07:14.508Z,0.00
2022-10-26T01:08:14.393Z,0.00
2022-10-26T01:09:14.330Z,0.00
2022-10-26T01:10:14.265Z,0.00
2022-10-26T01:11:14.205Z,0.00
2022-10-26T01:12:14.146Z,0.00
2022-10-26T01:13:14.075Z,0.00
2022-10-26T01:14:14.011Z,0.00
2022-10-26T01:15:13.937Z,0.00
2022-10-26T01:16:13.874Z,0.00
2022-10-26T01:17:13.808Z,0.00
2022-10-26T01:18:13.764Z,0.00
2022-10-26T01:19:13.685Z,0.00
2022-10-26T01:20:13.620Z,0.00
2022-10-26T01:21:13.556Z,0.00
2022-10-26T01:22:13.487Z,0.00
2022-10-26T01:23:13.420Z,0.00
2022-10-26T01:24:13.356Z,0.00
2022-10-26T01:25:13.297Z,0.00
2022-10-26T01:26:13.231Z,0.00
2022-10-26T01:27:13.164Z,0.00
2022-10-26T01:28:13.102Z,0.00
2022-10-26T01:29:13.036Z,0.00
2022-10-26T01:30:12.976Z,0.00
2022-10-26T01:31:12.901Z,0.00
2022-10-26T01:32:12.837Z,0.00
2022-10-26T01:33:12.774Z,0.00
2022-10-26T01:34:12.709Z,0.00
2022-10-26T01:35:12.638Z,0.00
2022-10-26T01:36:12.581Z,0.00
2022-10-26T01:37:12.514Z,0.00
2022-10-26T01:38:12.444Z,0.00
2022-10-26T01:39:12.378Z,0.00
2022-10-26T01:40:12.316Z,0.00
2022-10-26T01:41:12.254Z,0.00
2022-10-26T01:42:12.186Z,0.00
2022-10-26T01:43:12.122Z,0.00
2022-10-26T01:44:12.056Z,0.00
2022-10-26T01:45:11.991Z,0.00
2022-10-26T01:46:11.960Z,0.00
2022-10-26T01:47:11.867Z,0.00
2022-10-26T01:48:11.814Z,0.00
2022-10-26T01:49:11.730Z,0.00
2022-10-26T01:50:11.668Z,0.00
2022-10-26T01:51:11.597Z,0.00
2022-10-26T01:52:11.571Z,0.00
2022-10-26T01:53:11.486Z,0.00
2022-10-26T01:54:11.413Z,0.00
2022-10-26T01:55:11.356Z,0.00
2022-10-26T01:56:11.280Z,0.00
2022-10-26T01:57:11.221Z,0.00
2022-10-26T01:58:11.147Z,0.00
2022-10-26T01:59:11.121Z,0.00
2022-10-26T02:00:11.029Z,0.00
2022-10-26T02:01:11.008Z,0.00
2022-10-26T02:02:10.885Z,0.00
2022-10-26T02:03:10.845Z,0.00
2022-10-26T02:04:10.806Z,0.00
2022-10-26T02:05:10.703Z,0.00
2022-10-26T02:06:10.637Z,0.00
2022-10-26T02:07:10.558Z,0.00
2022-10-26T02:08:10.494Z,0.00
2022-10-26T02:09:10.426Z,0.00
2022-10-26T02:10:10.373Z,0.00
2022-10-26T02:11:10.303Z,0.00
2022-10-26T02:12:10.240Z,0.00
2022-10-26T02:13:10.189Z,0.00
2022-10-26T02:14:10.157Z,0.00
2022-10-26T02:15:10.038Z,0.00
2022-10-26T02:16:09.971Z,0.00
2022-10-26T02:17:09.907Z,0.00
2022-10-26T02:18:09.848Z,0.00
2022-10-26T02:19:09.773Z,0.00
2022-10-26T02:20:09.720Z,0.00
2022-10-26T02:21:09.656Z,0.00
2022-10-26T02:22:09.587Z,0.00
2022-10-26T02:23:09.511Z,0.00
2022-10-26T02:24:09.499Z,0.00
2022-10-26T02:25:09.384Z,0.00
2022-10-26T02:26:09.319Z,0.00
2022-10-26T02:27:09.255Z,0.00
2022-10-26T02:28:09.194Z,0.00
2022-10-26T02:29:09.129Z,0.00
2022-10-26T02:30:09.084Z,0.00
2022-10-26T02:31:09.020Z,0.00
2022-10-26T02:32:08.953Z,0.00
2022-10-26T02:33:08.861Z,0.00
2022-10-26T02:34:08.798Z,0.00
2022-10-26T02:35:08.730Z,0.00
2022-10-26T02:36:08.670Z,0.00
2022-10-26T02:37:08.634Z,0.00
2022-10-26T02:38:08.540Z,0.00
2022-10-26T02:39:08.474Z,0.00
2022-10-26T02:40:08.404Z,0.00
2022-10-26T02:41:08.335Z,0.00
2022-10-26T02:42:08.277Z,0.00
2022-10-26T02:43:08.206Z,0.00
2022-10-26T02:44:08.146Z,0.00
2022-10-26T02:45:08.086Z,0.00
2022-10-26T02:46:08.017Z,0.00
2022-10-26T02:47:07.954Z,0.00
2022-10-26T02:48:07.895Z,0.00
2022-10-26T02:49:07.827Z,0.00
2022-10-26T02:50:07.753Z,0.00
2022-10-26T02:51:07.686Z,0.00
2022-10-26T02:52:07.618Z,0.00
2022-10-26T02:53:07.557Z,0.00
2022-10-26T02:54:07.500Z,0.00
2022-10-26T02:55:07.430Z,0.00
2022-10-26T02:56:07.369Z,0.00
2022-10-26T02:57:07.291Z,0.00
2022-10-26T02:58:07.233Z,0.00
2022-10-26T02:59:07.198Z,0.00
2022-10-26T03:00:07.148Z,0.00
2022-10-26T03:01:07.104Z,0.00
2022-10-26T03:02:06.966Z,0.00
2022-10-26T03:03:06.906Z,0.00
2022-10-26T03:04:06.865Z,0.00
2022-10-26T03:05:06.786Z,0.00
2022-10-26T03:06:06.712Z,0.00
2022-10-26T03:07:06.672Z,0.00
2022-10-26T03:08:06.587Z,0.00
2022-10-26T03:09:06.508Z,0.00
2022-10-26T03:10:06.442Z,0.00
2022-10-26T03:11:06.386Z,0.00
2022-10-26T03:12:06.322Z,0.00
2022-10-26T03:13:06.258Z,0.00
2022-10-26T03:14:06.179Z,0.00
2022-10-26T03:15:06.112Z,0.00
2022-10-26T03:16:06.050Z,0.00
2022-10-26T03:17:05.984Z,0.00
2022-10-26T03:18:05.928Z,0.00
2022-10-26T03:19:05.858Z,0.00
2022-10-26T03:20:05.798Z,0.00
2022-10-26T03:21:05.739Z,0.00
2022-10-26T03:22:05.665Z,0.00
2022-10-26T03:23:05.590Z,0.00
2022-10-26T03:24:05.523Z,0.00
2022-10-26T03:25:05.485Z,0.00
2022-10-26T03:26:05.395Z,0.00
2022-10-26T03:27:05.336Z,0.00
2022-10-26T03:28:05.263Z,0.00
2022-10-26T03:29:05.200Z,0.00
2022-10-26T03:30:05.206Z,0.00
2022-10-26T03:31:05.062Z,0.00
2022-10-26T03:32:05.002Z,0.00
2022-10-26T03:33:04.936Z,0.00
2022-10-26T03:34:04.870Z,0.00
2022-10-26T03:35:04.836Z,0.00
2022-10-26T03:36:04.738Z,0.00
2022-10-26T03:37:04.671Z,0.00
2022-10-26T03:38:04.615Z,0.00
2022-10-26T03:39:04.540Z,0.00
2022-10-26T03:40:04.499Z,0.00
2022-10-26T03:41:04.405Z,0.00
2022-10-26T03:42:04.351Z,0.00
2022-10-26T03:43:04.291Z,0.00
2022-10-26T03:44:04.216Z,0.00
2022-10-26T03:45:04.149Z,0.00
2022-10-26T03:46:04.086Z,0.00
2022-10-26T03:47:04.023Z,0.00
2022-10-26T03:48:03.955Z,0.00
2022-10-26T03:49:03.903Z,0.00
2022-10-26T03:50:03.826Z,0.00
2022-10-26T03:51:03.756Z,0.00
2022-10-26T03:52:03.717Z,0.00
2022-10-26T03:53:03.624Z,0.00
2022-10-26T03:54:03.560Z,0.00
2022-10-26T03:55:03.487Z,0.00
2022-10-26T03:56:03.429Z,0.00
2022-10-26T03:57:03.363Z,0.00
2022-10-26T03:58:03.301Z,0.00
2022-10-26T03:59:03.238Z,0.00
2022-10-26T04:00:03.166Z,0.00
2022-10-26T04:01:03.217Z,0.00
2022-10-26T04:02:03.046Z,0.00
2022-10-26T04:03:02.972Z,0.00
2022-10-26T04:04:02.968Z,0.00
2022-10-26T04:05:02.859Z,0.00
2022-10-26T04:06:02.770Z,0.00
2022-10-26T04:07:02.699Z,0.00
2022-10-26T04:08:02.637Z,0.00
2022-10-26T04:09:02.581Z,0.00
2022-10-26T04:10:02.514Z,0.00
2022-10-26T04:11:04.591Z,0.00
2022-10-26T04:12:02.375Z,0.00
2022-10-26T04:13:02.327Z,0.00
2022-10-26T04:14:02.243Z,0.00
2022-10-26T04:16:02.110Z,0.00
2022-10-26T04:17:02.048Z,0.00
2022-10-26T04:18:01.980Z,0.00
2022-10-26T04:19:01.922Z,0.00
2022-10-26T04:20:01.856Z,0.00
2022-10-26T04:21:01.787Z,0.00
2022-10-26T04:22:01.712Z,0.00
2022-10-26T04:23:01.645Z,0.00
2022-10-26T04:24:01.589Z,0.00
2022-10-26T04:25:01.557Z,0.00
2022-10-26T04:26:01.459Z,0.00
2022-10-26T04:27:01.391Z,0.00
2022-10-26T04:28:01.322Z,0.00
2022-10-26T04:29:01.254Z,0.00
2022-10-26T04:30:01.185Z,0.00
2022-10-26T04:31:01.122Z,0.00
2022-10-26T04:32:01.052Z,0.00
2022-10-26T04:33:00.995Z,0.00
2022-10-26T04:34:00.933Z,0.00
2022-10-26T04:35:00.855Z,0.00
2022-10-26T04:36:00.792Z,0.00
2022-10-26T04:37:00.727Z,0.00
2022-10-26T04:38:00.659Z,0.00
2022-10-26T04:39:00.595Z,0.00
2022-10-26T04:40:00.622Z,0.00
2022-10-26T04:41:00.473Z,0.00
2022-10-26T04:42:00.412Z,0.00
2022-10-26T04:43:00.333Z,0.00
2022-10-26T04:44:00.285Z,0.00
2022-10-26T04:45:00.202Z,0.00
2022-10-26T04:46:00.132Z,0.00
2022-10-26T04:47:00.093Z,0.00
2022-10-26T04:48:00.020Z,0.00
2022-10-26T04:48:59.942Z,0.00
2022-10-26T04:49:59.886Z,0.00
2022-10-26T04:50:59.812Z,0.00
2022-10-26T04:51:59.736Z,0.00
2022-10-26T04:52:59.677Z,0.00
2022-10-26T04:53:59.604Z,0.00
2022-10-26T04:54:59.540Z,0.00
2022-10-26T04:55:59.480Z,0.00
2022-10-26T04:56:59.424Z,0.00
2022-10-26T04:58:01.282Z,0.00
2022-10-26T04:58:59.282Z,0.00
2022-10-26T04:59:59.209Z,0.00
2022-10-26T05:00:59.174Z,0.00
2022-10-26T05:01:59.279Z,0.00
2022-10-26T05:02:59.015Z,0.00
2022-10-26T05:03:58.959Z,0.00
2022-10-26T05:04:58.920Z,0.00
2022-10-26T05:05:58.967Z,0.00
2022-10-26T05:06:58.747Z,0.00
2022-10-26T05:07:58.687Z,0.00
2022-10-26T05:08:58.634Z,0.00
2022-10-26T05:09:58.555Z,0.00
2022-10-26T05:10:58.501Z,0.00
2022-10-26T05:11:58.434Z,0.00
2022-10-26T05:12:58.368Z,0.00
2022-10-26T05:13:58.286Z,0.00
2022-10-26T05:14:58.219Z,0.00
2022-10-26T05:15:58.155Z,0.00
2022-10-26T05:16:58.090Z,0.00
2022-10-26T05:17:58.031Z,0.00
2022-10-26T05:18:57.977Z,0.00
2022-10-26T05:19:57.916Z,0.00
2022-10-26T05:20:57.825Z,0.00
2022-10-26T05:21:57.771Z,0.00
2022-10-26T05:22:57.695Z,0.00
2022-10-26T05:23:57.635Z,0.00
2022-10-26T05:24:57.618Z,0.00
2022-10-26T05:25:57.509Z,0.00
2022-10-26T05:26:57.432Z,0.00
2022-10-26T05:27:57.359Z,0.00
2022-10-26T05:28:57.298Z,0.00
2022-10-26T05:29:57.296Z,0.00
2022-10-26T05:30:57.166Z,0.00
2022-10-26T05:31:57.099Z,0.00
2022-10-26T05:32:57.046Z,0.00
2022-10-26T05:33:56.964Z,0.00
2022-10-26T05:34:56.923Z,0.00
2022-10-26T05:35:56.831Z,0.00
2022-10-26T05:36:56.769Z,0.00
2022-10-26T05:37:56.705Z,0.00
2022-10-26T05:38:56.641Z,0.00
2022-10-26T05:39:56.569Z,0.00
2022-10-26T05:40:56.514Z,0.00
2022-10-26T05:41:56.437Z,0.00
2022-10-26T05:42:56.382Z,0.00
2022-10-26T05:43:56.304Z,0.00
2022-10-26T05:44:56.247Z,0.00
2022-10-26T05:45:56.176Z,0.00
2022-10-26T05:46:56.110Z,0.00
2022-10-26T05:47:58.657Z,0.00
2022-10-26T05:48:55.977Z,0.00
2022-10-26T05:49:55.904Z,0.00
2022-10-26T05:50:55.846Z,0.00
2022-10-26T05:51:55.778Z,0.00
2022-10-26T05:52:55.761Z,0.00
2022-10-26T05:53:55.655Z,0.00
2022-10-26T05:54:55.595Z,0.00
2022-10-26T05:55:55.510Z,5.63
2022-10-26T05:56:55.447Z,5.63
2022-10-26T05:57:55.381Z,5.63
2022-10-26T05:58:55.315Z,5.63
2022-10-26T05:59:55.262Z,5.63
2022-10-26T06:00:55.179Z,5.63
2022-10-26T06:01:55.276Z,5.63
2022-10-26T06:02:55.048Z,5.63
2022-10-26T06:03:54.982Z,5.63
2022-10-26T06:04:54.920Z,5.63
2022-10-26T06:05:54.853Z,5.63
2022-10-26T06:06:54.797Z,11.25
2022-10-26T06:07:54.716Z,11.25
2022-10-26T06:08:54.651Z,11.25
2022-10-26T06:09:54.588Z,11.25
2022-10-26T06:10:54.519Z,11.25
2022-10-26T06:11:54.456Z,11.25
2022-10-26T06:12:54.394Z,11.25
2022-10-26T06:13:54.323Z,11.25
2022-10-26T06:14:54.252Z,11.25
2022-10-26T06:15:54.188Z,16.88
2022-10-26T06:16:54.125Z,16.88
2022-10-26T06:17:54.064Z,16.88
2022-10-26T06:18:56.160Z,16.88
2022-10-26T06:19:53.930Z,16.88
2022-10-26T06:20:53.864Z,16.88
2022-10-26T06:21:53.789Z,16.88
2022-10-26T06:22:53.728Z,16.88
2022-10-26T06:23:53.657Z,16.88
2022-10-26T06:24:53.603Z,16.88
2022-10-26T06:25:53.530Z,22.50
2022-10-26T06:26:53.465Z,22.50
2022-10-26T06:27:53.403Z,22.50
2022-10-26T06:28:53.331Z,22.50
2022-10-26T06:29:53.261Z,22.50
2022-10-26T06:30:53.197Z,22.50
2022-10-26T06:31:53.131Z,22.50
2022-10-26T06:33:01.131Z,22.50
2022-10-26T06:33:53.005Z,22.50
2022-10-26T06:34:52.989Z,28.13
2022-10-26T06:35:52.975Z,28.13
2022-10-26T06:37:52.940Z,28.13
2022-10-26T06:38:52.672Z,28.13
2022-10-26T06:39:54.744Z,28.13
2022-10-26T06:40:52.613Z,28.13
2022-10-26T06:41:52.487Z,28.13
2022-10-26T06:42:52.405Z,28.13
2022-10-26T06:43:52.338Z,33.75
2022-10-26T06:44:52.277Z,33.75
2022-10-26T06:45:52.217Z,33.75
2022-10-26T06:46:52.140Z,33.75
2022-10-26T06:47:52.218Z,33.75
2022-10-26T06:48:52.054Z,33.75
2022-10-26T06:49:51.944Z,33.75
2022-10-26T06:50:51.877Z,33.75
2022-10-26T06:51:51.812Z,39.38
2022-10-26T06:52:51.746Z,39.38
2022-10-26T06:53:51.683Z,39.38
2022-10-26T06:54:51.639Z,39.38
2022-10-26T06:55:51.556Z,39.38
2022-10-26T06:56:51.500Z,45.00
2022-10-26T06:57:51.782Z,45.00
2022-10-26T06:58:51.353Z,45.00
2022-10-26T06:59:51.287Z,50.63
2022-10-26T07:00:51.272Z,50.63
2022-10-26T07:01:51.219Z,56.25
2022-10-26T07:02:51.492Z,56.25
2022-10-26T07:03:51.030Z,56.25
2022-10-26T07:04:50.981Z,61.88
2022-10-26T07:05:50.900Z,67.50
2022-10-26T07:06:50.828Z,67.50
2022-10-26T07:07:50.977Z,67.50
2022-10-26T07:08:50.710Z,67.50
2022-10-26T07:09:50.632Z,73.13
2022-10-26T07:10:50.572Z,84.38
2022-10-26T07:11:50.508Z,90.00
2022-10-26T07:12:50.463Z,95.63
2022-10-26T07:13:50.368Z,95.63
2022-10-26T07:14:50.305Z,101.25
2022-10-26T07:15:50.239Z,101.25
2022-10-26T07:16:50.176Z,101.25
2022-10-26T07:17:50.513Z,106.88
2022-10-26T07:18:50.046Z,101.25
2022-10-26T07:19:49.987Z,90.00
2022-10-26T07:20:49.925Z,95.63
2022-10-26T07:21:49.849Z,95.63
2022-10-26T07:22:49.783Z,95.63
2022-10-26T07:23:49.719Z,106.88
2022-10-26T07:24:49.653Z,112.50
2022-10-26T07:25:49.590Z,118.13
2022-10-26T07:26:49.523Z,123.75
2022-10-26T07:27:49.769Z,129.38
2022-10-26T07:28:49.401Z,135.00
2022-10-26T07:29:49.335Z,146.25
2022-10-26T07:30:51.781Z,140.63
2022-10-26T07:31:49.237Z,135.00
2022-10-26T07:32:49.448Z,146.25
2022-10-26T07:33:49.106Z,157.50
2022-10-26T07:34:49.019Z,163.13
2022-10-26T07:35:48.965Z,174.38
2022-10-26T07:36:48.882Z,191.25
2022-10-26T07:37:48.819Z,196.88
2022-10-26T07:38:48.761Z,219.38
2022-10-26T07:39:48.692Z,241.88
2022-10-26T07:40:48.629Z,270.00
2022-10-26T07:41:48.561Z,275.63
2022-10-26T07:42:48.977Z,270.00
2022-10-26T07:43:48.432Z,286.88
2022-10-26T07:44:48.377Z,303.75
2022-10-26T07:45:48.317Z,309.38
2022-10-26T07:46:48.251Z,320.63
2022-10-26T07:47:48.181Z,331.88
2022-10-26T07:48:48.128Z,348.75
2022-10-26T07:49:48.054Z,365.63
2022-10-26T07:50:47.993Z,354.38
2022-10-26T07:51:47.958Z,343.13
2022-10-26T07:52:48.139Z,360.00
2022-10-26T07:53:47.806Z,376.88
2022-10-26T07:54:47.750Z,382.50
2022-10-26T07:55:47.681Z,388.13
2022-10-26T07:56:47.621Z,388.13
2022-10-26T07:57:49.816Z,382.50
2022-10-26T07:58:47.501Z,388.13
2022-10-26T07:59:47.440Z,405.00
2022-10-26T08:00:47.432Z,410.63
2022-10-26T08:01:47.427Z,410.63
2022-10-26T08:02:47.253Z,421.88
2022-10-26T08:03:47.190Z,416.25
2022-10-26T08:04:47.141Z,427.50
2022-10-26T08:05:47.080Z,427.50
2022-10-26T08:06:47.011Z,438.75
2022-10-26T08:07:47.072Z,433.13
2022-10-26T08:08:47.644Z,438.75
2022-10-26T08:09:46.832Z,444.38
2022-10-26T08:10:46.780Z,444.38
2022-10-26T08:11:46.721Z,444.38
2022-10-26T08:12:46.659Z,450.00
2022-10-26T08:13:46.725Z,450.00
2022-10-26T08:14:46.543Z,450.00
2022-10-26T08:15:46.490Z,455.63
2022-10-26T08:16:46.444Z,455.63
2022-10-26T08:17:46.597Z,455.63
2022-10-26T08:18:46.303Z,461.25
2022-10-26T08:19:46.247Z,461.25
2022-10-26T08:20:46.198Z,461.25
2022-10-26T08:21:46.155Z,466.88
2022-10-26T08:22:46.227Z,472.50
2022-10-26T08:23:46.022Z,472.50
2022-10-26T08:24:45.952Z,472.50
2022-10-26T08:25:45.931Z,472.50
2022-10-26T08:26:45.834Z,472.50
2022-10-26T08:27:45.793Z,472.50
2022-10-26T08:28:45.726Z,472.50
2022-10-26T08:29:45.657Z,478.13
2022-10-26T08:30:45.606Z,478.13
2022-10-26T08:31:45.561Z,472.50
2022-10-26T08:32:45.495Z,472.50
2022-10-26T08:33:45.437Z,472.50
2022-10-26T08:34:45.380Z,472.50
2022-10-26T08:35:45.314Z,472.50
2022-10-26T08:36:45.293Z,478.13
2022-10-26T08:37:45.208Z,472.50
2022-10-26T08:38:45.167Z,472.50
2022-10-26T08:39:45.085Z,472.50
2022-10-26T08:40:45.034Z,472.50
2022-10-26T08:41:44.977Z,466.88
2022-10-26T08:42:44.915Z,466.88
2022-10-26T08:43:44.862Z,466.88
2022-10-26T08:44:44.800Z,466.88
2022-10-26T08:45:44.761Z,466.88
2022-10-26T08:46:44.697Z,461.25
2022-10-26T08:47:44.638Z,466.88
2022-10-26T08:48:44.576Z,466.88
2022-10-26T08:49:44.525Z,466.88
2022-10-26T08:50:44.463Z,466.88
2022-10-26T08:51:44.405Z,472.50
2022-10-26T08:52:44.361Z,472.50
2022-10-26T08:53:44.295Z,472.50
2022-10-26T08:54:44.248Z,472.50
2022-10-26T08:56:47.158Z,472.50
2022-10-26T08:57:44.074Z,472.50
2022-10-26T08:58:44.016Z,466.88
2022-10-26T08:59:43.990Z,466.88
2022-10-26T09:00:43.940Z,472.50
2022-10-26T09:01:43.944Z,466.88
2022-10-26T09:02:43.788Z,466.88
2022-10-26T09:03:43.734Z,466.88
2022-10-26T09:04:43.678Z,466.88
2022-10-26T09:05:43.623Z,466.88
2022-10-26T09:06:43.566Z,472.50
2022-10-26T09:07:43.525Z,466.88
2022-10-26T09:08:43.457Z,466.88
2022-10-26T09:09:43.404Z,466.88
2022-10-26T09:10:43.340Z,466.88
2022-10-26T09:11:43.287Z,466.88
2022-10-26T09:12:43.243Z,466.88
2022-10-26T09:13:43.182Z,466.88
2022-10-26T09:14:43.121Z,461.25
2022-10-26T09:15:43.063Z,461.25
2022-10-26T09:16:43.005Z,455.63
2022-10-26T09:17:42.952Z,455.63
2022-10-26T09:18:42.993Z,455.63
2022-10-26T09:19:42.843Z,455.63
2022-10-26T09:20:42.786Z,455.63
2022-10-26T09:21:42.731Z,455.63
2022-10-26T09:22:42.671Z,450.00
2022-10-26T09:23:42.616Z,450.00
2022-10-26T09:24:42.559Z,450.00
2022-10-26T09:25:42.510Z,444.38
2022-10-26T09:26:42.450Z,438.75
2022-10-26T09:27:42.393Z,438.75
2022-10-26T09:28:42.331Z,438.75
2022-10-26T09:29:42.275Z,433.13
2022-10-26T09:30:42.222Z,433.13
2022-10-26T09:31:43.431Z,438.75
2022-10-26T09:32:42.119Z,438.75
2022-10-26T09:33:42.062Z,433.13
2022-10-26T09:34:41.995Z,433.13
2022-10-26T09:35:41.939Z,433.13
2022-10-26T09:36:41.885Z,433.13
2022-10-26T09:37:41.828Z,433.13
2022-10-26T09:38:41.794Z,433.13
2022-10-26T09:39:42.270Z,433.13
2022-10-26T09:40:41.664Z,433.13
2022-10-26T09:41:41.616Z,433.13
2022-10-26T09:42:41.546Z,427.50
2022-10-26T09:43:41.532Z,427.50
2022-10-26T09:44:41.450Z,427.50
2022-10-26T09:45:41.384Z,421.88
2022-10-26T09:46:41.331Z,399.38
2022-10-26T09:47:41.267Z,399.38
2022-10-26T09:48:41.213Z,388.13
2022-10-26T09:49:41.179Z,427.50
2022-10-26T09:50:41.119Z,410.63
2022-10-26T09:51:41.059Z,410.63
2022-10-26T09:52:40.997Z,405.00
2022-10-26T09:53:40.935Z,388.13
2022-10-26T09:54:40.887Z,382.50
2022-10-26T09:55:40.821Z,388.13
2022-10-26T09:56:40.772Z,376.88
2022-10-26T09:57:40.726Z,382.50
2022-10-26T09:58:40.664Z,371.25
2022-10-26T09:59:40.614Z,382.50
2022-10-26T10:00:40.735Z,382.50
2022-10-26T10:01:42.301Z,399.38
2022-10-26T10:02:40.467Z,382.50
2022-10-26T10:03:40.387Z,410.63
2022-10-26T10:04:40.330Z,399.38
2022-10-26T10:05:50.863Z,472.50
2022-10-26T10:06:40.211Z,348.75
2022-10-26T10:07:40.225Z,585.00
2022-10-26T10:08:40.100Z,635.63
2022-10-26T10:09:40.048Z,810.00
2022-10-26T10:10:39.985Z,455.63
2022-10-26T10:11:39.938Z,427.50
2022-10-26T10:12:39.894Z,478.13
2022-10-26T10:13:39.831Z,438.75
2022-10-26T10:14:39.951Z,579.38
2022-10-26T10:15:39.711Z,517.50
2022-10-26T10:16:39.666Z,905.63
2022-10-26T10:17:39.610Z,376.88
2022-10-26T10:18:39.539Z,675.00
2022-10-26T10:19:39.501Z,534.38
2022-10-26T10:20:39.432Z,607.50
2022-10-26T10:21:39.372Z,562.50
2022-10-26T10:22:39.316Z,573.75
2022-10-26T10:23:39.269Z,556.88
2022-10-26T10:24:39.203Z,208.13
2022-10-26T10:25:39.155Z,545.63
2022-10-26T10:26:39.097Z,573.75
2022-10-26T10:27:39.101Z,444.38
2022-10-26T10:28:38.999Z,343.13
2022-10-26T10:29:38.952Z,354.38
2022-10-26T10:30:38.885Z,551.25
2022-10-26T10:31:38.815Z,495.00
2022-10-26T10:32:39.300Z,410.63
2022-10-26T10:33:38.696Z,219.38
2022-10-26T10:34:38.639Z,444.38
2022-10-26T10:35:38.585Z,433.13
2022-10-26T10:36:38.526Z,388.13
2022-10-26T10:37:38.525Z,393.75
2022-10-26T10:38:38.420Z,348.75
2022-10-26T10:39:38.359Z,303.75
2022-10-26T10:40:38.301Z,202.50
2022-10-26T10:41:38.261Z,247.50
2022-10-26T10:42:38.184Z,225.00
2022-10-26T10:43:38.162Z,236.25
2022-10-26T10:44:38.086Z,230.63
2022-10-26T10:45:38.020Z,213.75
2022-10-26T10:46:37.968Z,213.75
2022-10-26T10:47:37.955Z,196.88
2022-10-26T10:48:39.452Z,191.25
2022-10-26T10:49:37.794Z,196.88
2022-10-26T10:50:37.727Z,168.75
2022-10-26T10:51:37.674Z,196.88
2022-10-26T10:52:37.630Z,286.88
2022-10-26T10:53:37.585Z,253.13
2022-10-26T10:54:37.526Z,258.75
2022-10-26T10:55:37.451Z,247.50
2022-10-26T10:56:37.390Z,225.00
2022-10-26T10:57:37.346Z,219.38
2022-10-26T10:58:37.274Z,202.50
2022-10-26T10:59:37.222Z,219.38
2022-10-26T11:00:37.159Z,174.38
2022-10-26T11:01:37.163Z,135.00
2022-10-26T11:02:37.075Z,84.38
2022-10-26T11:03:36.990Z,78.75
2022-10-26T11:04:36.924Z,73.13
2022-10-26T11:05:36.871Z,73.13
2022-10-26T11:06:36.812Z,67.50
2022-10-26T11:07:36.760Z,67.50
2022-10-26T11:08:36.695Z,67.50
2022-10-26T11:09:36.649Z,61.88
2022-10-26T11:10:36.582Z,61.88
2022-10-26T11:11:36.652Z,61.88
2022-10-26T11:12:36.489Z,61.88
2022-10-26T11:13:36.419Z,61.88
2022-10-26T11:14:36.352Z,61.88
2022-10-26T11:15:36.287Z,61.88
2022-10-26T11:16:36.233Z,61.88
2022-10-26T11:17:36.177Z,61.88
2022-10-26T11:18:36.159Z,61.88
2022-10-26T11:19:36.057Z,61.88
2022-10-26T11:20:36.002Z,61.88
2022-10-26T11:21:35.941Z,61.88
2022-10-26T11:22:36.001Z,61.88
2022-10-26T11:23:35.818Z,56.25
2022-10-26T11:24:35.766Z,61.88
2022-10-26T11:25:35.703Z,61.88
2022-10-26T11:26:35.636Z,56.25
2022-10-26T11:27:35.580Z,56.25
2022-10-26T11:28:35.530Z,56.25
2022-10-26T11:29:38.339Z,56.25
2022-10-26T11:30:35.416Z,56.25
2022-10-26T11:31:35.347Z,56.25
2022-10-26T11:32:35.299Z,56.25
2022-10-26T11:33:35.229Z,56.25
2022-10-26T11:34:35.164Z,56.25
2022-10-26T11:35:35.105Z,56.25
2022-10-26T11:36:35.042Z,56.25
2022-10-26T11:37:35.017Z,56.25
2022-10-26T11:38:46.054Z,56.25
2022-10-26T11:39:34.867Z,56.25
2022-10-26T11:40:34.803Z,56.25
2022-10-26T11:41:34.746Z,56.25
2022-10-26T11:42:34.684Z,56.25
2022-10-26T11:43:34.625Z,56.25
2022-10-26T11:44:34.562Z,56.25
2022-10-26T11:45:34.509Z,56.25
2022-10-26T11:46:34.439Z,56.25
2022-10-26T11:47:34.384Z,56.25
2022-10-26T11:48:34.329Z,56.25
2022-10-26T11:49:34.262Z,56.25
2022-10-26T11:50:34.200Z,56.25
2022-10-26T11:51:34.139Z,56.25
2022-10-26T11:52:34.079Z,56.25
2022-10-26T11:53:34.034Z,56.25
2022-10-26T11:54:33.971Z,56.25
2022-10-26T11:55:33.920Z,56.25
2022-10-26T11:56:33.837Z,56.25
2022-10-26T11:57:33.781Z,56.25
2022-10-26T11:58:33.725Z,56.25
2022-10-26T11:59:33.823Z,56.25
2022-10-26T12:00:33.608Z,56.25
2022-10-26T12:01:33.577Z,56.25
2022-10-26T12:02:33.572Z,56.25
2022-10-26T12:03:33.421Z,56.25
2022-10-26T12:04:33.361Z,56.25
2022-10-26T12:05:33.301Z,56.25
2022-10-26T12:06:33.235Z,56.25
2022-10-26T12:07:33.173Z,56.25
2022-10-26T12:08:33.117Z,56.25
2022-10-26T12:09:35.589Z,56.25
2022-10-26T12:10:32.987Z,56.25
2022-10-26T12:11:32.932Z,56.25
2022-10-26T12:12:35.118Z,56.25
2022-10-26T12:13:32.808Z,56.25
2022-10-26T12:14:32.758Z,56.25
2022-10-26T12:15:40.249Z,56.25
2022-10-26T12:16:32.635Z,56.25
2022-10-26T12:17:32.570Z,56.25
2022-10-26T12:18:54.095Z,56.25
2022-10-26T12:19:32.449Z,56.25
2022-10-26T12:20:32.385Z,56.25
2022-10-26T12:21:32.328Z,56.25
2022-10-26T12:22:32.263Z,56.25
2022-10-26T12:23:40.272Z,56.25
2022-10-26T12:24:32.141Z,56.25
2022-10-26T12:25:32.079Z,56.25
2022-10-26T12:26:32.020Z,56.25
2022-10-26T12:27:31.981Z,56.25
2022-10-26T12:28:31.897Z,56.25
2022-10-26T12:29:31.838Z,56.25
2022-10-26T12:30:31.782Z,56.25
2022-10-26T12:31:31.717Z,56.25
2022-10-26T12:32:31.660Z,56.25
2022-10-26T12:33:31.596Z,56.25
2022-10-26T12:34:31.537Z,56.25
2022-10-26T12:35:31.472Z,56.25
2022-10-26T12:36:31.415Z,56.25
2022-10-26T12:37:31.374Z,56.25
2022-10-26T12:38:33.782Z,56.25
2022-10-26T12:39:31.231Z,56.25
2022-10-26T12:40:31.188Z,56.25
2022-10-26T12:41:31.112Z,56.25
2022-10-26T12:42:31.056Z,56.25
2022-10-26T12:43:31.073Z,56.25
2022-10-26T12:44:31.050Z,56.25
2022-10-26T12:45:30.864Z,56.25
2022-10-26T12:46:30.805Z,56.25
2022-10-26T12:47:30.750Z,56.25
2022-10-26T12:48:39.192Z,56.25
2022-10-26T12:49:30.623Z,56.25
2022-10-26T12:50:30.562Z,56.25
2022-10-26T12:51:30.500Z,56.25
2022-10-26T12:52:30.443Z,56.25
2022-10-26T12:53:30.401Z,56.25
2022-10-26T12:54:30.316Z,56.25
2022-10-26T12:55:30.259Z,56.25
2022-10-26T12:56:30.198Z,56.25
2022-10-26T12:57:30.138Z,56.25
2022-10-26T12:58:30.074Z,56.25
2022-10-26T12:59:30.016Z,56.25
2022-10-26T13:00:30.090Z,56.25